Terminal Aerodrome Forecast
Issued by NWS

Home | Current Version | Previous Version | Text Only | Print | Product List | Glossary On
Versions: 1 2 3 4 5 6 7 8 9 10 11 12 13 14 15 16 17 18 19 20 21 22 23 24 25 26 27 28 29 30 31 32 33 34 35 36
000
FTUS45 KBOU 290022 AAA
TAFAPA
TAF AMD
KAPA 290022Z 2900/2924 33015KT 1 1/2SM -RA BR OVC004
     FM290200 01014KT 1 1/2SM -RA BR OVC004
      TEMPO 2902/2906 3/4SM -RA BR OVC003
     FM290800 02011KT 1 1/2SM -RASN BR SCT003 OVC005
     FM291300 36012KT 3SM -RA BR SCT008 BKN012
     FM291900 01015KT 5SM -RA BR SCT012 BKN020
     FM292100 01015KT P6SM SCT020 BKN035=

USA.gov is the U.S. government's official web portal to all federal, state and local government web resources and services.